createdAt,value
2022-12-23T07:04:04.368Z,11.20
2022-12-23T07:06:31.010Z,11.20
2022-12-23T07:08:57.595Z,11.10
2022-12-23T07:11:24.203Z,11.30
2022-12-23T07:13:50.945Z,11.20
2022-12-23T07:16:17.535Z,11.30
2022-12-23T07:18:44.206Z,12.80
2022-12-23T07:21:21.384Z,11.30
2022-12-23T07:23:53.225Z,11.30
2022-12-23T07:26:19.801Z,11.30
2022-12-23T07:28:48.297Z,11.30
2022-12-23T07:31:15.151Z,11.40
2022-12-23T07:33:42.140Z,12.80
2022-12-23T07:36:08.942Z,11.40
2022-12-23T07:38:35.513Z,11.40
2022-12-23T07:41:02.076Z,11.40
2022-12-23T07:43:28.672Z,11.40
2022-12-23T07:45:59.821Z,11.40
2022-12-23T07:48:27.634Z,11.30
2022-12-23T07:50:59.607Z,11.40
2022-12-23T07:53:26.221Z,11.40
2022-12-23T07:55:56.428Z,11.40
2022-12-23T07:58:23.589Z,11.50
2022-12-23T08:00:50.212Z,11.50
2022-12-23T08:03:17.214Z,11.60
2022-12-23T08:05:43.891Z,11.70
2022-12-23T08:08:10.461Z,12.20
2022-12-23T08:10:40.252Z,11.80
2022-12-23T08:13:09.399Z,11.70
2022-12-23T08:15:35.973Z,11.80
2022-12-23T08:18:02.537Z,11.70
2022-12-23T08:20:29.111Z,11.80
2022-12-23T08:22:55.869Z,11.80
2022-12-23T08:25:22.428Z,11.80
2022-12-23T08:27:50.432Z,11.80
2022-12-23T08:30:17.027Z,11.90
2022-12-23T08:32:43.587Z,12.00
2022-12-23T08:35:10.210Z,12.10
2022-12-23T08:37:36.790Z,12.10
2022-12-23T08:40:03.511Z,12.10
2022-12-23T08:42:30.248Z,12.00
2022-12-23T08:44:56.837Z,11.90
2022-12-23T08:47:23.417Z,11.80
2022-12-23T08:49:49.986Z,11.90
2022-12-23T08:52:16.569Z,9.30
2022-12-23T08:54:43.277Z,12.00
2022-12-23T08:57:09.842Z,12.00
2022-12-23T08:59:36.410Z,12.00
2022-12-23T09:02:03.792Z,12.00
2022-12-23T09:04:30.533Z,12.00
2022-12-23T09:06:57.144Z,12.00
2022-12-23T09:09:23.710Z,12.10
2022-12-23T09:11:50.453Z,12.20
2022-12-23T09:14:17.026Z,12.20
2022-12-23T09:16:43.610Z,12.20
2022-12-23T09:19:10.225Z,12.20
2022-12-23T09:21:36.924Z,12.30
2022-12-23T09:24:03.676Z,12.40
2022-12-23T09:26:30.609Z,12.50
2022-12-23T09:28:57.234Z,12.60
2022-12-23T09:31:24.017Z,12.60
2022-12-23T09:33:51.603Z,12.70
2022-12-23T09:36:18.670Z,12.70
2022-12-23T09:38:45.371Z,12.60
2022-12-23T09:41:17.777Z,12.90
2022-12-23T09:43:47.437Z,12.50
2022-12-23T09:46:20.025Z,12.60
2022-12-23T09:48:53.518Z,12.60
2022-12-23T09:51:21.914Z,12.60
2022-12-23T09:54:04.790Z,12.60
2022-12-23T09:56:34.949Z,12.60
2022-12-23T09:59:14.450Z,12.50
2022-12-23T10:01:46.254Z,12.50
2022-12-23T10:04:12.902Z,12.50
2022-12-23T10:06:40.395Z,12.40
2022-12-23T10:09:07.431Z,12.90
2022-12-23T10:11:41.628Z,12.40
2022-12-23T10:14:34.268Z,12.30
2022-12-23T10:17:04.954Z,12.40
2022-12-23T10:19:34.139Z,12.50
2022-12-23T10:22:24.097Z,12.60
2022-12-23T10:24:51.048Z,12.60
2022-12-23T10:27:34.887Z,12.70
2022-12-23T10:30:20.000Z,12.70
2022-12-23T10:32:52.508Z,13.20
2022-12-23T10:35:29.345Z,12.60
2022-12-23T10:38:07.875Z,12.60
2022-12-23T10:40:50.143Z,12.50
2022-12-23T10:43:41.327Z,12.40
2022-12-23T10:46:27.468Z,12.40
2022-12-23T10:49:00.090Z,12.40
2022-12-23T10:51:37.516Z,12.30
2022-12-23T10:54:06.701Z,12.40
2022-12-23T10:56:33.552Z,12.30
2022-12-23T10:59:00.933Z,12.30
2022-12-23T11:01:30.114Z,12.40
2022-12-23T11:03:59.930Z,12.40
2022-12-23T11:06:31.491Z,12.40
2022-12-23T11:09:02.361Z,12.40
2022-12-23T11:11:47.812Z,12.40
2022-12-23T11:14:32.978Z,12.50
2022-12-23T11:16:59.685Z,12.60
2022-12-23T11:19:26.244Z,12.60
2022-12-23T11:21:54.669Z,12.60
2022-12-23T11:24:22.202Z,12.80
2022-12-23T11:26:50.413Z,12.60
2022-12-23T11:29:25.477Z,14.00
2022-12-23T11:31:52.415Z,12.60
2022-12-23T11:34:20.573Z,12.60
2022-12-23T11:36:59.956Z,12.70
2022-12-23T11:39:34.215Z,12.60
2022-12-23T11:42:11.369Z,12.60
2022-12-23T11:44:40.674Z,12.60
2022-12-23T11:47:17.142Z,12.80
2022-12-23T11:49:49.454Z,12.60
2022-12-23T11:52:18.423Z,12.70
2022-12-23T11:54:55.725Z,12.80
2022-12-23T11:57:37.829Z,12.70
2022-12-23T12:00:05.276Z,12.80
2022-12-23T12:02:31.885Z,12.80
2022-12-23T12:05:04.768Z,12.80
2022-12-23T12:07:32.035Z,12.80
2022-12-23T12:10:00.091Z,12.90
2022-12-23T12:12:27.420Z,12.90
2022-12-23T12:14:55.339Z,12.90
2022-12-23T12:17:21.993Z,12.90
2022-12-23T12:20:04.952Z,14.40
2022-12-23T12:22:31.677Z,12.80
2022-12-23T12:24:59.735Z,12.70
2022-12-23T12:27:33.606Z,13.50
2022-12-23T12:30:08.126Z,12.50
2022-12-23T12:32:39.886Z,12.40
2022-12-23T12:35:10.362Z,12.30
2022-12-23T12:37:46.519Z,12.30
2022-12-23T12:40:31.978Z,12.20
2022-12-23T12:43:01.855Z,12.10
2022-12-23T12:45:33.382Z,12.00
2022-12-23T12:48:13.142Z,12.00
2022-12-23T12:50:50.854Z,12.00
2022-12-23T12:53:21.814Z,11.80
2022-12-23T12:55:50.919Z,11.70
2022-12-23T12:58:21.799Z,11.80
2022-12-23T13:00:56.808Z,12.00
2022-12-23T13:03:42.376Z,11.60
2022-12-23T13:06:27.653Z,11.50
2022-12-23T13:09:01.196Z,11.50
2022-12-23T13:11:34.227Z,11.50
2022-12-23T13:14:08.578Z,11.40
2022-12-23T13:16:45.554Z,11.50
2022-12-23T13:19:30.832Z,11.50
2022-12-23T13:22:00.465Z,11.50
2022-12-23T13:24:27.107Z,11.50
2022-12-23T13:27:10.573Z,11.50
2022-12-23T13:29:37.160Z,11.60
2022-12-23T13:32:24.017Z,11.60
2022-12-23T13:34:59.632Z,11.60
2022-12-23T13:37:39.306Z,11.60
2022-12-23T13:40:20.466Z,11.60
2022-12-23T13:42:51.349Z,11.60
2022-12-23T13:45:18.842Z,11.60
2022-12-23T13:47:50.644Z,11.60
2022-12-23T13:50:26.338Z,11.50
2022-12-23T13:52:59.541Z,11.40
2022-12-23T13:55:43.973Z,11.30
2022-12-23T13:58:15.160Z,11.30
2022-12-23T14:00:42.395Z,11.20
2022-12-23T14:03:14.986Z,11.20
2022-12-23T14:05:48.854Z,11.00
2022-12-23T14:08:18.439Z,11.20
2022-12-23T14:10:56.330Z,11.20
2022-12-23T14:13:23.784Z,11.10
2022-12-23T14:16:10.702Z,11.10
2022-12-23T14:18:54.103Z,11.10
2022-12-23T14:21:32.052Z,11.10
2022-12-23T14:24:22.379Z,11.00
2022-12-23T14:26:57.823Z,11.00
2022-12-23T14:29:50.183Z,10.90
2022-12-23T14:32:27.417Z,11.00
2022-12-23T14:35:04.779Z,11.00
2022-12-23T14:37:35.506Z,11.00
2022-12-23T14:40:20.930Z,11.00
2022-12-23T14:42:47.498Z,14.40
2022-12-23T14:45:41.057Z,11.00
2022-12-23T14:48:26.909Z,11.10
2022-12-23T14:50:57.897Z,11.10
2022-12-23T14:53:27.506Z,11.90
2022-12-23T14:56:11.181Z,11.10
2022-12-23T14:58:58.047Z,11.10
2022-12-23T15:01:24.625Z,11.00
2022-12-23T15:03:57.559Z,15.10
2022-12-23T15:06:39.165Z,11.00
2022-12-23T15:09:07.518Z,10.80
2022-12-23T15:11:35.143Z,10.90
2022-12-23T15:14:03.657Z,10.90
2022-12-23T15:16:32.641Z,10.80
2022-12-23T15:19:02.181Z,10.90
2022-12-23T15:21:30.357Z,10.80
2022-12-23T15:23:57.100Z,10.70
2022-12-23T15:26:25.938Z,10.70
2022-12-23T15:28:52.601Z,10.70
2022-12-23T15:31:26.933Z,10.70
2022-12-23T15:34:03.545Z,10.70
2022-12-23T15:36:35.629Z,10.70
2022-12-23T15:39:03.610Z,10.60
2022-12-23T15:41:30.204Z,10.60
2022-12-23T15:43:57.990Z,10.70
2022-12-23T15:46:29.925Z,10.60
2022-12-23T15:48:57.614Z,10.70
2022-12-23T15:52:05.964Z,10.70
2022-12-23T15:54:31.604Z,10.70
2022-12-23T15:56:59.647Z,10.70
2022-12-23T15:59:28.430Z,10.70
2022-12-23T16:01:55.479Z,10.60
2022-12-23T16:04:25.319Z,10.60
2022-12-23T16:06:52.642Z,10.70
2022-12-23T16:09:19.272Z,10.70
2022-12-23T16:11:56.350Z,10.70
2022-12-23T16:14:25.861Z,10.70
2022-12-23T16:16:52.982Z,10.70
2022-12-23T16:19:54.941Z,10.70
2022-12-23T16:22:24.121Z,10.70
2022-12-23T16:24:53.394Z,10.80
2022-12-23T16:27:25.104Z,13.30
2022-12-23T16:29:51.671Z,10.80
2022-12-23T16:32:19.166Z,10.80
2022-12-23T16:34:48.713Z,13.90
2022-12-23T16:37:15.414Z,10.90
2022-12-23T16:39:42.044Z,10.80
2022-12-23T16:42:08.675Z,10.90
2022-12-23T16:44:35.429Z,10.90
2022-12-23T16:47:12.902Z,10.90
2022-12-23T16:49:39.548Z,10.80
2022-12-23T16:52:07.283Z,10.80
2022-12-23T16:54:33.920Z,10.90
2022-12-23T16:57:00.520Z,10.80
2022-12-23T16:59:27.234Z,10.80
2022-12-23T17:01:58.100Z,10.90
2022-12-23T17:04:29.567Z,10.90
2022-12-23T17:06:56.129Z,10.90
2022-12-23T17:09:22.896Z,10.90
2022-12-23T17:11:52.770Z,11.00
2022-12-23T17:14:20.935Z,11.00
2022-12-23T17:16:48.272Z,11.00
2022-12-23T17:19:23.429Z,11.00
2022-12-23T17:21:56.899Z,11.10
2022-12-23T17:24:24.670Z,11.10
2022-12-23T17:26:51.607Z,11.20
2022-12-23T17:29:18.270Z,11.20
2022-12-23T17:31:45.636Z,11.30
2022-12-23T17:34:16.022Z,11.30
2022-12-23T17:36:49.184Z,11.30
2022-12-23T17:39:16.921Z,11.30
2022-12-23T17:41:43.585Z,12.60
2022-12-23T17:44:12.322Z,11.30
2022-12-23T17:46:38.974Z,11.30
2022-12-23T17:49:05.523Z,11.30
2022-12-23T17:51:32.101Z,11.30
2022-12-23T17:53:59.819Z,11.30
2022-12-23T17:56:27.852Z,11.20
2022-12-23T17:58:54.724Z,11.20
2022-12-23T18:01:21.309Z,11.30
2022-12-23T18:03:47.921Z,11.30
2022-12-23T18:06:15.651Z,11.40
2022-12-23T18:08:42.567Z,11.40
2022-12-23T18:11:12.207Z,11.40
2022-12-23T18:13:38.893Z,11.40
2022-12-23T18:16:05.485Z,11.40
2022-12-23T18:18:43.806Z,11.40
2022-12-23T18:21:32.917Z,11.40
2022-12-23T18:23:59.690Z,11.50
2022-12-23T18:26:26.384Z,11.50
2022-12-23T18:28:54.109Z,11.50
2022-12-23T18:31:22.839Z,11.50
2022-12-23T18:33:49.509Z,11.60
2022-12-23T18:36:27.078Z,11.60
2022-12-23T18:38:54.059Z,11.60
2022-12-23T18:41:21.748Z,11.60
2022-12-23T18:43:48.768Z,11.60
2022-12-23T18:46:15.404Z,11.70
2022-12-23T18:48:42.293Z,11.60
2022-12-23T18:51:18.743Z,11.70
2022-12-23T18:53:45.782Z,11.70
2022-12-23T18:56:13.872Z,11.80
2022-12-23T18:58:40.528Z,11.80
2022-12-23T19:01:10.920Z,11.90
2022-12-23T19:03:37.535Z,11.90
2022-12-23T19:06:06.412Z,11.90
2022-12-23T19:08:34.146Z,11.90
2022-12-23T19:11:00.789Z,12.00
2022-12-23T19:13:27.375Z,12.00
2022-12-23T19:15:54.071Z,12.00
2022-12-23T19:18:21.649Z,12.10
2022-12-23T19:20:48.542Z,12.10
2022-12-23T19:23:15.609Z,12.10
2022-12-23T19:25:44.276Z,12.10
2022-12-23T19:28:14.281Z,12.10
2022-12-23T19:30:41.478Z,12.10
2022-12-23T19:33:08.374Z,12.20
2022-12-23T19:35:34.946Z,12.20
2022-12-23T19:38:01.521Z,12.20
2022-12-23T19:40:28.174Z,12.20
2022-12-23T19:42:54.750Z,12.20
2022-12-23T19:45:21.315Z,12.20
2022-12-23T19:47:48.025Z,12.20
2022-12-23T19:50:14.610Z,12.20
2022-12-23T19:52:41.156Z,12.40
2022-12-23T19:55:07.997Z,12.20
2022-12-23T19:57:34.682Z,12.20
2022-12-23T20:00:02.683Z,12.30
2022-12-23T20:02:29.687Z,12.30
2022-12-23T20:04:56.263Z,12.30
2022-12-23T20:07:22.866Z,12.40
2022-12-23T20:09:49.440Z,12.30
2022-12-23T20:12:15.998Z,12.30
2022-12-23T20:14:42.607Z,12.40
2022-12-23T20:17:09.166Z,12.30
2022-12-23T20:19:39.130Z,12.30
2022-12-23T20:22:10.356Z,12.30
2022-12-23T20:24:37.084Z,12.30
2022-12-23T20:27:07.910Z,12.30
2022-12-23T20:29:37.772Z,12.40
2022-12-23T20:32:04.439Z,12.40
2022-12-23T20:34:36.695Z,12.40
2022-12-23T20:37:06.131Z,12.40
2022-12-23T20:39:32.717Z,12.40
2022-12-23T20:41:59.340Z,12.40
2022-12-23T20:44:35.600Z,12.30
2022-12-23T20:47:03.404Z,12.20
2022-12-23T20:49:30.107Z,12.10
2022-12-23T20:51:56.753Z,11.90
2022-12-23T20:54:29.698Z,11.80
2022-12-23T20:56:59.059Z,11.80
2022-12-23T20:59:25.624Z,11.60
2022-12-23T21:01:52.278Z,11.70
2022-12-23T21:04:19.052Z,11.60
2022-12-23T21:06:45.684Z,11.50
2022-12-23T21:09:13.579Z,11.50
2022-12-23T21:11:41.270Z,11.40
2022-12-23T21:14:08.100Z,11.40
2022-12-23T21:16:36.149Z,11.40
2022-12-23T21:19:03.418Z,11.40
2022-12-23T21:21:31.670Z,11.40
2022-12-23T21:23:59.873Z,11.50
2022-12-23T21:26:28.062Z,11.60
2022-12-23T21:28:55.679Z,11.30
2022-12-23T21:31:23.695Z,11.00
2022-12-23T21:33:50.885Z,10.80
2022-12-23T21:36:20.913Z,10.70
2022-12-23T21:38:48.557Z,10.60
2022-12-23T21:41:16.588Z,10.60
2022-12-23T21:43:43.170Z,10.60
2022-12-23T21:46:15.007Z,10.60
2022-12-23T21:48:42.107Z,10.50
2022-12-23T21:51:11.915Z,10.50
2022-12-23T21:53:39.107Z,10.70
2022-12-23T21:56:07.190Z,10.80
2022-12-23T21:58:35.676Z,10.90
2022-12-23T22:01:11.352Z,10.90
2022-12-23T22:03:38.318Z,10.90
2022-12-23T22:06:10.645Z,11.00
2022-12-23T22:08:38.471Z,11.20
2022-12-23T22:11:09.036Z,11.40
2022-12-23T22:13:36.187Z,11.50
2022-12-23T22:16:03.406Z,11.70
2022-12-23T22:18:30.623Z,11.70
2022-12-23T22:20:57.255Z,11.80
2022-12-23T22:23:23.802Z,11.60
2022-12-23T22:25:53.995Z,11.50
2022-12-23T22:28:20.800Z,11.50
2022-12-23T22:30:47.643Z,11.40
2022-12-23T22:33:14.375Z,11.30
2022-12-23T22:35:41.061Z,11.20
2022-12-23T22:38:08.655Z,11.20
2022-12-23T22:40:35.275Z,11.20
2022-12-23T22:43:01.880Z,11.30
2022-12-23T22:45:28.482Z,11.30
2022-12-23T22:47:55.183Z,11.30
2022-12-23T22:50:21.744Z,11.40
2022-12-23T22:52:48.319Z,11.50
2022-12-23T22:55:14.885Z,11.40
2022-12-23T22:57:41.477Z,11.40
2022-12-23T23:00:12.235Z,11.20
2022-12-23T23:02:39.493Z,11.20
2022-12-23T23:05:12.376Z,11.10
2022-12-23T23:07:39.686Z,11.00
2022-12-23T23:10:06.646Z,11.00
2022-12-23T23:12:33.280Z,11.00
2022-12-23T23:14:59.854Z,11.00
2022-12-23T23:17:27.188Z,11.00
2022-12-23T23:19:53.827Z,10.90
2022-12-23T23:22:21.452Z,10.90
2022-12-23T23:24:48.350Z,10.90
2022-12-23T23:27:14.936Z,10.80
2022-12-23T23:29:41.925Z,10.80
2022-12-23T23:32:08.616Z,10.80
2022-12-23T23:34:35.422Z,10.70
2022-12-23T23:37:02.022Z,10.60
2022-12-23T23:39:28.717Z,10.60
2022-12-23T23:41:55.311Z,10.60
2022-12-23T23:44:21.999Z,10.60
2022-12-23T23:46:48.716Z,10.60
2022-12-23T23:49:15.282Z,10.70
2022-12-23T23:51:41.983Z,10.70
2022-12-23T23:54:08.565Z,10.80
2022-12-23T23:56:38.713Z,10.90
2022-12-23T23:59:06.613Z,10.90
